EZY234 EHRD-EGPH
Flight info
| Callsign | EZY234 |
|---|---|
| Flight time | N/A |
| Altitude | 38000 |
| Route | ABNED L980 LAM/N0398F220 L10 BPK N601 INPIP |
| Aircraft | A320/M-SDE3FGHIRWY/LB1 |
Departure
| Time | 2026-05-05 13:55 |
|---|---|
| Airport | Rotterdam The Hague Airport (EHRD) |
Arrival
| Time | N/A |
|---|---|
| Airport | Edinburgh Airport (EGPH) |
| Time | Latitude | Longitude | Altitude | Speed | Heading |
|---|---|---|---|---|---|
| 2026-05-05 13:17 | 51.95168 | 4.43347 | 1 ft | 0 kts | 327° |
| 2026-05-05 13:44 | 51.95191 | 4.43313 | 2 ft | 6 kts | 302° |
| 2026-05-05 13:44 | 51.95184 | 4.43257 | 1 ft | 5 kts | 244° |
| 2026-05-05 13:45 | 51.95149 | 4.43158 | 1 ft | 15 kts | 242° |
| 2026-05-05 13:45 | 51.95118 | 4.43052 | 1 ft | 0 kts | 244° |
| 2026-05-05 13:45 | 51.95117 | 4.43048 | 1 ft | 0 kts | 244° |
| 2026-05-05 13:45 | 51.95117 | 4.43046 | 1 ft | 0 kts | 244° |
| 2026-05-05 13:46 | 51.95116 | 4.43043 | 1 ft | 0 kts | 244° |
| 2026-05-05 13:46 | 51.95115 | 4.43040 | 1 ft | 0 kts | 244° |
| 2026-05-05 13:46 | 51.95113 | 4.43035 | 1 ft | 1 kts | 244° |
| 2026-05-05 13:46 | 51.95113 | 4.43034 | 1 ft | 0 kts | 244° |
| 2026-05-05 13:52 | 51.95112 | 4.43032 | 1 ft | 0 kts | 244° |
| 2026-05-05 13:52 | 51.95111 | 4.43020 | 1 ft | 3 kts | 256° |
| 2026-05-05 13:53 | 51.95112 | 4.42973 | 1 ft | 4 kts | 283° |
| 2026-05-05 13:53 | 51.95130 | 4.42933 | 2 ft | 7 kts | 316° |
| 2026-05-05 13:53 | 51.95195 | 4.42863 | 2 ft | 12 kts | 328° |
| 2026-05-05 13:53 | 51.95249 | 4.42923 | 2 ft | 12 kts | 60° |
| 2026-05-05 13:54 | 51.95255 | 4.42939 | 2 ft | 0 kts | 58° |
| 2026-05-05 13:54 | 51.95256 | 4.42942 | 2 ft | 0 kts | 58° |
| 2026-05-05 13:54 | 51.95292 | 4.43035 | 2 ft | 42 kts | 57° |
| 2026-05-05 13:54 | 51.95597 | 4.43797 | 1 ft | 115 kts | 57° |
| 2026-05-05 13:55 | 51.96273 | 4.45517 | 646 ft | 140 kts | 56° |
| 2026-05-05 13:55 | 51.96774 | 4.46885 | 1431 ft | 146 kts | 57° |
| 2026-05-05 13:55 | 51.97144 | 4.47885 | 1770 ft | 161 kts | 57° |
| 2026-05-05 13:55 | 51.97735 | 4.49531 | 2284 ft | 181 kts | 58° |
| 2026-05-05 13:56 | 51.98571 | 4.51228 | 2796 ft | 205 kts | 38° |
| 2026-05-05 13:56 | 51.99917 | 4.52158 | 3610 ft | 219 kts | 9° |
| 2026-05-05 13:56 | 52.01452 | 4.51890 | 4612 ft | 228 kts | 341° |
| 2026-05-05 13:56 | 52.02772 | 4.50401 | 5515 ft | 237 kts | 309° |
| 2026-05-05 13:57 | 52.03448 | 4.48002 | 6459 ft | 241 kts | 278° |
| 2026-05-05 13:57 | 52.03286 | 4.45317 | 7402 ft | 242 kts | 248° |
| 2026-05-05 13:57 | 52.02276 | 4.43122 | 8300 ft | 247 kts | 218° |
| 2026-05-05 13:57 | 52.00855 | 4.41509 | 9274 ft | 250 kts | 215° |
| 2026-05-05 13:58 | 51.99430 | 4.39841 | 10196 ft | 255 kts | 216° |
| 2026-05-05 13:58 | 51.97992 | 4.38117 | 11052 ft | 259 kts | 217° |
| 2026-05-05 13:58 | 51.96579 | 4.36322 | 11954 ft | 262 kts | 223° |
| 2026-05-05 13:58 | 51.95390 | 4.34011 | 12586 ft | 277 kts | 242° |
| 2026-05-05 13:59 | 51.95149 | 4.27516 | 13550 ft | 313 kts | 281° |
| 2026-05-05 13:59 | 51.95526 | 4.23925 | 13944 ft | 333 kts | 277° |
| 2026-05-05 14:00 | 51.95267 | 4.15947 | 14630 ft | 370 kts | 260° |
| 2026-05-05 14:00 | 51.94748 | 4.11891 | 15368 ft | 374 kts | 257° |
| 2026-05-05 14:00 | 51.94167 | 4.07756 | 16169 ft | 376 kts | 256° |
| 2026-05-05 14:00 | 51.93624 | 4.03572 | 16890 ft | 381 kts | 257° |
| 2026-05-05 14:01 | 51.93130 | 3.99321 | 17616 ft | 385 kts | 258° |
| 2026-05-05 14:01 | 51.92686 | 3.95081 | 18319 ft | 388 kts | 259° |
| 2026-05-05 14:01 | 51.92263 | 3.90727 | 18937 ft | 391 kts | 260° |
| 2026-05-05 14:01 | 51.91851 | 3.86330 | 19567 ft | 394 kts | 259° |
| 2026-05-05 14:02 | 51.91445 | 3.81977 | 20177 ft | 397 kts | 259° |
| 2026-05-05 14:02 | 51.91021 | 3.77522 | 20781 ft | 401 kts | 259° |
| 2026-05-05 14:02 | 51.90585 | 3.73044 | 21359 ft | 404 kts | 259° |
| 2026-05-05 14:02 | 51.90138 | 3.68513 | 21940 ft | 407 kts | 259° |
| 2026-05-05 14:03 | 51.89688 | 3.63962 | 22507 ft | 411 kts | 258° |
| 2026-05-05 14:03 | 51.89235 | 3.59422 | 23061 ft | 414 kts | 258° |
| 2026-05-05 14:03 | 51.88767 | 3.54787 | 23592 ft | 417 kts | 259° |
| 2026-05-05 14:03 | 51.88294 | 3.50134 | 24066 ft | 420 kts | 259° |
| 2026-05-05 14:04 | 51.87819 | 3.45452 | 24542 ft | 422 kts | 258° |
| 2026-05-05 14:04 | 51.87342 | 3.40747 | 25029 ft | 424 kts | 258° |
| 2026-05-05 14:04 | 51.86867 | 3.36081 | 25473 ft | 426 kts | 258° |
| 2026-05-05 14:04 | 51.86380 | 3.31335 | 25934 ft | 428 kts | 259° |
| 2026-05-05 14:05 | 51.85886 | 3.26550 | 26406 ft | 429 kts | 257° |
| 2026-05-05 14:05 | 51.85391 | 3.21773 | 26844 ft | 432 kts | 258° |
| 2026-05-05 14:05 | 51.84893 | 3.16958 | 27272 ft | 434 kts | 258° |
| 2026-05-05 14:05 | 51.84476 | 3.12170 | 27713 ft | 437 kts | 260° |
| 2026-05-05 14:06 | 51.84139 | 3.07278 | 28157 ft | 438 kts | 261° |
| 2026-05-05 14:06 | 51.83851 | 3.02346 | 28560 ft | 441 kts | 263° |
| 2026-05-05 14:06 | 51.83578 | 2.97373 | 28942 ft | 443 kts | 262° |
| 2026-05-05 14:06 | 51.83296 | 2.92394 | 29330 ft | 445 kts | 262° |
| 2026-05-05 14:07 | 51.82996 | 2.87405 | 29722 ft | 447 kts | 262° |
| 2026-05-05 14:07 | 51.82678 | 2.82447 | 30063 ft | 449 kts | 261° |
| 2026-05-05 14:07 | 51.82336 | 2.77393 | 30362 ft | 451 kts | 261° |
| 2026-05-05 14:07 | 51.81986 | 2.72362 | 30795 ft | 449 kts | 261° |
| 2026-05-05 14:08 | 51.81635 | 2.67350 | 31272 ft | 447 kts | 261° |
| 2026-05-05 14:08 | 51.81428 | 2.64388 | 31551 ft | 446 kts | 261° |